Time;durP1;ratioP1;P1;durP2;ratioP2;P2;SDS_P1;SDS_P2;PMS_P1;PMS_P2;Temp;Humidity;BMP_temperature;BMP_pressure;BME280_temperature;BME280_humidity;BME280_pressure;Samples;Min_cycle;Max_cycle;Signal;HPM_P1;HPM_P2
2022/09/12 00:01:50;;;;;;;3.67;3.38;;;;;;;16.04;80.14;93204.78;5070162;28;20112;-34
2022/09/12 00:04:15;;;;;;;3.05;2.75;;;;;;;15.99;79.98;93203.03;5070573;28;20027;-35
2022/09/12 00:06:41;;;;;;;8.85;8.35;;;;;;;16.06;79.75;93202.16;5070277;28;20044;-35
2022/09/12 00:09:09;;;;;;;5.45;4.95;;;;;;;16.08;79.31;93193.94;5052269;28;20075;-35
2022/09/12 00:11:36;;;;;;;5.40;4.35;;;;;;;16.05;79.57;93192.34;5070561;28;20459;-35
2022/09/12 00:14:03;;;;;;;6.65;3.78;;;;;;;15.94;80.00;93208.31;5070439;28;20028;-34
2022/09/12 00:16:30;;;;;;;3.65;3.35;;;;;;;15.73;80.96;93210.28;5070366;28;20025;-34
2022/09/12 00:18:56;;;;;;;3.10;2.80;;;;;;;15.73;80.54;93205.44;5070046;28;20020;-35
2022/09/12 00:21:23;;;;;;;3.53;3.22;;;;;;;15.59;81.11;93200.94;5070386;28;20107;-35
2022/09/12 00:23:49;;;;;;;3.63;3.17;;;;;;;15.56;81.15;93207.66;5052385;28;20473;-35
2022/09/12 00:26:16;;;;;;;4.15;3.25;;;;;;;15.64;80.05;93211.00;5082041;28;20572;-35
2022/09/12 00:28:42;;;;;;;5.15;3.20;;;;;;;15.62;79.68;93206.03;5079850;28;20077;-34
2022/09/12 00:31:14;;;;;;;3.45;2.75;;;;;;;15.56;79.52;93216.00;5069984;28;20450;-34
2022/09/12 00:33:40;;;;;;;3.55;2.95;;;;;;;15.38;79.39;93178.50;5070558;28;20383;-34
2022/09/12 00:36:13;;;;;;;13.10;2.90;;;;;;;15.45;79.80;93213.81;5071177;28;20016;-35
2022/09/12 00:38:40;;;;;;;2.75;2.45;;;;;;;15.48;79.48;93212.66;5074139;28;20024;-34
2022/09/12 00:41:10;;;;;;;3.10;2.90;;;;;;;15.52;79.25;93213.69;5073839;28;20031;-34
2022/09/12 00:43:41;;;;;;;3.00;2.67;;;;;;;14.62;79.02;93093.78;5056103;28;20099;-35
2022/09/12 00:46:23;;;;;;;3.67;2.72;;;;;;;15.40;80.30;93209.28;5073694;28;20028;-34
2022/09/12 00:48:53;;;;;;;3.97;2.88;;;;;;;15.45;79.23;93213.81;5073949;28;20017;-35
2022/09/12 00:51:18;;;;;;;2.90;2.70;;;;;;;15.49;78.59;93216.88;5056040;28;20021;-34
2022/09/12 00:53:45;;;;;;;3.00;2.75;;;;;;;15.40;78.37;93220.41;5069820;28;20104;-35
2022/09/12 00:56:11;;;;;;;3.67;3.38;;;;;;;15.26;78.61;93211.75;5076054;28;20504;-35
2022/09/12 00:58:47;;;;;;;5.20;3.00;;;;;;;15.26;78.35;93211.00;5093877;28;20055;-35
2022/09/12 01:01:13;;;;;;;3.30;3.00;;;;;;;15.13;78.38;93199.00;5076101;28;20392;-34
2022/09/12 01:03:39;;;;;;;5.80;3.42;;;;;;;15.08;78.51;93204.84;5093641;28;20093;-34
2022/09/12 01:06:04;;;;;;;3.08;2.83;;;;;;;15.13;77.64;93196.22;5075936;28;20107;-34
2022/09/12 01:08:30;;;;;;;3.25;2.92;;;;;;;15.11;77.83;93207.22;5093517;28;20485;-34
2022/09/12 01:10:56;;;;;;;4.07;3.17;;;;;;;15.03;78.71;93208.63;5093601;28;20020;-35
2022/09/12 01:13:21;;;;;;;3.17;2.85;;;;;;;14.92;78.32;93206.47;5093891;28;20020;-34
2022/09/12 01:15:47;;;;;;;3.10;2.83;;;;;;;14.91;77.83;93211.28;5093524;28;20483;-34
2022/09/12 01:18:24;;;;;;;3.63;2.72;;;;;;;14.87;77.94;93208.19;5093756;28;20036;-35
2022/09/12 01:21:04;;;;;;;3.45;2.92;;;;;;;14.91;77.43;93205.72;5093633;28;20032;-34
2022/09/12 01:23:33;;;;;;;3.70;2.60;;;;;;;14.81;77.42;93204.25;5073387;28;20107;-34
2022/09/12 01:26:16;;;;;;;3.60;3.30;;;;;;;14.85;78.46;93199.72;5072513;28;20028;-34
2022/09/12 01:28:47;;;;;;;3.28;2.97;;;;;;;14.68;78.82;93197.06;5083962;28;20040;-34
2022/09/12 01:31:24;;;;;;;3.67;3.30;;;;;;;14.50;78.70;93203.28;5093517;28;20031;-34
2022/09/12 01:34:26;;;;;;;3.63;2.85;;;;;;;14.33;78.66;93202.06;5075070;28;20457;-34
2022/09/12 01:37:00;;;;;;;2.78;2.58;;;;;;;14.43;77.60;93196.53;5075306;28;20566;-35
2022/09/12 01:39:46;;;;;;;2.63;2.42;;;;;;;14.39;77.93;93191.41;5093273;28;20074;-34
2022/09/12 01:42:23;;;;;;;6.03;2.95;;;;;;;14.37;77.98;93191.25;5093330;28;20110;-35
2022/09/12 01:44:53;;;;;;;4.18;2.92;;;;;;;14.37;77.41;93196.81;5092852;28;20028;-35
2022/09/12 01:47:38;;;;;;;2.70;2.50;;;;;;;14.32;76.97;93186.69;5092890;28;20415;-34
2022/09/12 01:50:06;;;;;;;2.70;2.50;;;;;;;14.20;77.60;93198.91;5092930;28;20472;-34
2022/09/12 01:52:43;;;;;;;3.70;2.63;;;;;;;14.09;77.30;93172.44;5092826;28;20048;-34
2022/09/12 01:55:14;;;;;;;3.22;2.92;;;;;;;14.27;76.76;93193.22;5074769;28;20461;-34
2022/09/12 01:57:50;;;;;;;5.22;2.63;;;;;;;14.11;77.00;93182.94;5074626;28;20032;-34
2022/09/12 02:00:15;;;;;;;2.92;2.63;;;;;;;14.08;77.04;93178.53;5074772;28;20048;-34
2022/09/12 02:02:49;;;;;;;2.92;2.72;;;;;;;14.00;77.34;93191.81;5092906;28;20046;-34
2022/09/12 02:05:25;;;;;;;2.38;2.17;;;;;;;13.87;78.01;93187.38;5092728;28;20062;-34
2022/09/12 02:08:03;;;;;;;2.90;2.45;;;;;;;13.83;78.00;93164.13;5092759;28;20060;-34
2022/09/12 02:10:31;;;;;;;3.05;2.70;;;;;;;14.10;77.42;93189.78;5074520;28;20406;-34
2022/09/12 02:13:13;;;;;;;2.92;2.63;;;;;;;14.07;77.42;93196.50;5092713;28;20446;-34
2022/09/12 02:15:46;;;;;;;2.83;2.53;;;;;;;14.03;77.41;93194.16;5092637;28;20103;-34
2022/09/12 02:18:17;;;;;;;5.15;2.85;;;;;;;14.03;77.73;93190.66;5084363;28;20115;-35
2022/09/12 02:20:44;;;;;;;4.20;3.15;;;;;;;13.97;78.58;93184.66;5055046;28;20106;-34
2022/09/12 02:23:15;;;;;;;3.88;2.33;;;;;;;13.99;78.29;93185.50;5054407;28;20028;-34
2022/09/12 02:25:43;;;;;;;2.72;2.08;;;;;;;14.00;77.60;93180.69;5053512;28;20077;-34
2022/09/12 02:28:13;;;;;;;2.70;2.38;;;;;;;13.90;78.18;93177.91;5059950;28;20560;-34
2022/09/12 02:31:03;;;;;;;4.35;2.60;;;;;;;13.82;78.99;93179.31;5073947;28;20020;-34
2022/09/12 02:33:42;;;;;;;4.25;2.58;;;;;;;13.89;78.44;93178.44;5073969;28;20054;-34
2022/09/12 02:36:22;;;;;;;3.03;2.58;;;;;;;13.84;77.81;93182.94;5092022;28;20024;-34
2022/09/12 02:38:48;;;;;;;2.67;2.28;;;;;;;13.83;76.92;93191.88;5074741;28;20096;-34
2022/09/12 02:41:17;;;;;;;3.05;2.78;;;;;;;13.66;76.52;93164.91;5073677;28;20115;-35
2022/09/12 02:43:42;;;;;;;3.03;2.10;;;;;;;13.60;77.32;93186.59;5073813;28;20028;-34
2022/09/12 02:46:14;;;;;;;2.83;2.60;;;;;;;13.49;78.61;93185.09;5091765;28;20086;-34
2022/09/12 02:48:42;;;;;;;5.22;3.05;;;;;;;13.53;78.54;93193.75;5091689;28;20097;-34
2022/09/12 02:51:09;;;;;;;4.88;2.83;;;;;;;13.36;79.67;93196.53;5091694;28;20089;-35
2022/09/12 02:53:34;;;;;;;6.38;4.45;;;;;;;13.49;80.03;93185.09;5073877;28;20024;-34
2022/09/12 02:56:00;;;;;;;3.67;2.92;;;;;;;13.59;79.28;93193.47;5091599;28;20046;-35
2022/09/12 02:58:28;;;;;;;4.88;3.47;;;;;;;13.58;78.59;93192.75;5091343;28;20430;-34
2022/09/12 03:01:23;;;;;;;4.50;3.25;;;;;;;13.54;78.83;93192.44;5090687;28;20518;-34
2022/09/12 03:04:07;;;;;;;2.80;2.47;;;;;;;13.60;78.14;93201.22;5091579;28;20035;-34
2022/09/12 03:06:45;;;;;;;3.17;2.75;;;;;;;13.44;78.67;93196.44;5091693;28;20076;-34
2022/09/12 03:09:43;;;;;;;2.72;2.15;;;;;;;13.50;76.79;93183.06;5073204;28;20123;-34
2022/09/12 03:12:23;;;;;;;2.78;2.38;;;;;;;13.36;77.24;93196.53;5003571;28;20707;-34
2022/09/12 03:15:00;;;;;;;2.67;2.13;;;;;;;13.14;78.27;93197.56;5080018;28;20032;-34
2022/09/12 03:17:47;;;;;;;3.20;2.90;;;;;;;13.16;77.36;93194.94;5071326;28;20067;-34
2022/09/12 03:20:39;;;;;;;2.40;2.20;;;;;;;13.18;77.62;93200.63;5052971;28;20028;-34
2022/09/12 03:23:12;;;;;;;2.20;2.00;;;;;;;13.05;78.53;93200.22;5070872;28;20030;-34
2022/09/12 03:25:48;;;;;;;2.20;2.10;;;;;;;13.14;78.37;93194.78;5052714;28;20024;-34
2022/09/12 03:28:15;;;;;;;3.47;2.92;;;;;;;13.03;78.57;93186.91;5077629;28;20050;-34
2022/09/12 03:30:43;;;;;;;3.40;3.10;;;;;;;13.15;78.75;93196.22;5056275;28;20469;-34
2022/09/12 03:33:17;;;;;;;3.63;3.30;;;;;;;13.03;80.17;93194.50;5091118;28;20092;-34
2022/09/12 03:35:44;;;;;;;3.55;2.83;;;;;;;13.10;79.81;93205.53;5090834;28;20028;-34
2022/09/12 03:38:10;;;;;;;4.57;3.03;;;;;;;13.19;78.55;93206.94;5072817;28;20024;-34
2022/09/12 03:40:36;;;;;;;4.80;2.50;;;;;;;13.14;77.49;93194.78;5091064;28;20069;-34
2022/09/12 03:43:02;;;;;;;3.13;2.60;;;;;;;13.13;76.97;93204.38;5072921;28;20550;-34
2022/09/12 03:45:28;;;;;;;3.10;2.85;;;;;;;13.01;77.28;93208.19;5090686;28;20051;-34
2022/09/12 03:47:53;;;;;;;5.32;2.92;;;;;;;12.94;77.49;93204.19;5090726;28;20060;-34
2022/09/12 03:50:19;;;;;;;2.72;2.50;;;;;;;12.81;78.03;93204.50;5090629;28;20475;-34
2022/09/12 03:52:44;;;;;;;5.22;3.30;;;;;;;12.78;78.89;93200.84;5090824;28;20510;-34
2022/09/12 03:55:11;;;;;;;3.22;2.72;;;;;;;12.88;78.59;93209.25;5090449;28;20032;-34
2022/09/12 03:57:36;;;;;;;4.07;2.90;;;;;;;12.71;79.63;93212.72;5090829;28;20028;-34
2022/09/12 04:00:07;;;;;;;3.13;2.83;;;;;;;12.72;80.68;93210.69;5090291;28;20507;-34
2022/09/12 04:02:33;;;;;;;3.85;3.38;;;;;;;12.84;81.01;93217.25;5090575;28;20107;-34
2022/09/12 04:04:58;;;;;;;4.63;3.25;;;;;;;12.90;81.16;93212.19;5090824;28;20028;-34
2022/09/12 04:07:24;;;;;;;3.95;3.35;;;;;;;12.94;81.55;93207.72;5090771;28;20028;-34
2022/09/12 04:09:49;;;;;;;3.85;3.22;;;;;;;12.98;81.50;93212.09;5089721;28;20480;-34
2022/09/12 04:12:15;;;;;;;7.22;3.47;;;;;;;13.04;82.17;93218.88;5070041;28;20116;-34
2022/09/12 04:14:41;;;;;;;3.58;3.28;;;;;;;13.11;82.24;93209.03;5070243;28;20115;-34
2022/09/12 04:17:07;;;;;;;2.95;2.65;;;;;;;13.13;82.31;93223.03;5070481;28;20107;-34
2022/09/12 04:19:33;;;;;;;21.35;11.85;;;;;;;13.22;82.72;93230.72;5070125;28;20039;-34
2022/09/12 04:21:58;;;;;;;10.63;7.82;;;;;;;13.23;82.19;93216.28;5070232;28;20029;-34
2022/09/12 04:24:23;;;;;;;4.63;3.80;;;;;;;13.31;81.62;93233.56;5070171;28;20029;-34
2022/09/12 04:26:49;;;;;;;3.78;3.15;;;;;;;13.35;82.40;93227.59;5069514;28;20024;-34
2022/09/12 04:29:14;;;;;;;5.25;3.60;;;;;;;13.49;81.45;93221.16;5075421;28;20123;-34
2022/09/12 04:31:40;;;;;;;3.88;3.47;;;;;;;13.63;80.73;93218.75;5070323;28;20562;-34
2022/09/12 04:34:06;;;;;;;4.97;3.90;;;;;;;13.53;81.25;93224.25;5070345;28;20028;-34
2022/09/12 04:36:33;;;;;;;6.00;3.50;;;;;;;13.52;81.80;93227.59;5069978;28;20564;-34
2022/09/12 04:38:59;;;;;;;6.15;3.88;;;;;;;13.41;81.71;93234.38;5069840;28;20052;-34
2022/09/12 04:41:27;;;;;;;4.93;3.53;;;;;;;13.48;81.83;93239.09;5070295;28;20033;-34
2022/09/12 04:44:00;;;;;;;4.67;3.50;;;;;;;13.52;82.59;93238.69;5069924;28;20025;-34
2022/09/12 04:46:26;;;;;;;4.30;3.53;;;;;;;13.64;82.28;93240.38;5070015;28;20056;-34
2022/09/12 04:48:51;;;;;;;4.40;3.05;;;;;;;13.72;81.85;93231.22;5070227;28;20070;-34
2022/09/12 04:51:21;;;;;;;7.35;3.80;;;;;;;13.88;81.71;93230.44;5069853;28;20029;-34
2022/09/12 04:53:50;;;;;;;3.80;3.13;;;;;;;14.04;79.91;93237.25;5084260;28;20035;-34
2022/09/12 04:56:16;;;;;;;4.18;3.13;;;;;;;14.01;80.44;93232.84;5090078;28;20495;-34
2022/09/12 04:58:41;;;;;;;3.80;3.10;;;;;;;14.06;80.33;93233.91;5090024;28;20100;-34
2022/09/12 05:01:09;;;;;;;5.68;3.60;;;;;;;14.07;79.80;93238.91;5072089;28;20028;-35
2022/09/12 05:03:34;;;;;;;3.67;3.13;;;;;;;14.08;81.30;93239.59;5090230;28;20457;-34
2022/09/12 05:06:08;;;;;;;7.18;3.88;;;;;;;14.13;81.84;93233.81;5089934;28;20085;-34
2022/09/12 05:08:34;;;;;;;6.60;5.15;;;;;;;14.21;81.37;93244.78;5090229;28;20020;-34
2022/09/12 05:11:05;;;;;;;6.18;4.40;;;;;;;14.27;81.10;93253.59;5089800;28;20037;-34
2022/09/12 05:13:32;;;;;;;5.20;3.50;;;;;;;14.32;81.39;93244.28;5055027;28;20115;-35
2022/09/12 05:15:58;;;;;;;4.43;3.72;;;;;;;14.31;81.53;93243.53;5072112;28;20035;-34
2022/09/12 05:18:25;;;;;;;4.93;4.50;;;;;;;14.38;81.28;93247.53;5090096;28;20024;-34
2022/09/12 05:20:51;;;;;;;4.25;3.28;;;;;;;14.25;80.79;93231.94;5089574;28;20028;-34
2022/09/12 05:23:17;;;;;;;7.15;3.90;;;;;;;14.43;80.80;93243.75;5091244;28;20032;-35
2022/09/12 05:25:52;;;;;;;5.20;4.45;;;;;;;14.45;80.73;93249.47;5084573;28;20025;-34
2022/09/12 05:28:19;;;;;;;6.55;3.67;;;;;;;14.46;80.92;93247.41;5080115;28;20035;-34
2022/09/12 05:30:45;;;;;;;4.55;3.72;;;;;;;14.46;80.96;93248.16;5093511;28;20028;-34
2022/09/12 05:33:10;;;;;;;5.15;3.30;;;;;;;14.44;81.29;93250.78;5093153;28;20039;-35
2022/09/12 05:35:39;;;;;;;7.88;5.60;;;;;;;14.41;81.08;93238.03;5075120;28;20028;-34
2022/09/12 05:38:05;;;;;;;6.70;4.35;;;;;;;14.42;80.56;93247.84;5093441;28;20032;-34
2022/09/12 05:40:31;;;;;;;6.40;3.78;;;;;;;14.46;80.95;93248.16;5074965;28;20028;-34
2022/09/12 05:42:56;;;;;;;7.32;4.20;;;;;;;14.55;80.94;93247.47;5092967;28;20028;-35
2022/09/12 05:45:22;;;;;;;6.88;4.68;;;;;;;14.65;80.98;93245.44;5092929;28;20031;-35
2022/09/12 05:47:48;;;;;;;4.32;3.28;;;;;;;14.75;80.28;93246.19;5092996;28;20031;-34
2022/09/12 05:50:13;;;;;;;4.65;4.15;;;;;;;14.74;79.26;93249.56;5093115;28;20028;-34
2022/09/12 05:52:39;;;;;;;5.78;4.28;;;;;;;14.56;79.17;93248.19;5093061;28;20051;-34
2022/09/12 05:55:05;;;;;;;5.18;3.88;;;;;;;14.62;79.88;93246.59;5093020;28;20411;-34
2022/09/12 05:57:30;;;;;;;4.80;3.80;;;;;;;14.62;78.62;93238.25;5092982;28;20023;-34
2022/09/12 05:59:56;;;;;;;6.50;3.83;;;;;;;14.59;79.04;93233.88;5092490;28;20123;-35
2022/09/12 06:02:21;;;;;;;3.95;3.15;;;;;;;14.69;79.37;93237.41;5092605;28;20111;-34
2022/09/12 06:04:47;;;;;;;5.18;3.28;;;;;;;14.76;78.13;93221.91;5092872;28;20032;-34
2022/09/12 06:07:13;;;;;;;4.53;3.85;;;;;;;14.99;78.73;93236.16;5082346;28;20033;-35
2022/09/12 06:09:39;;;;;;;3.60;3.17;;;;;;;15.18;78.21;93236.91;5072531;28;20056;-34
2022/09/12 06:12:05;;;;;;;3.05;2.58;;;;;;;15.32;75.86;93233.69;5072248;28;20461;-34
2022/09/12 06:14:31;;;;;;;3.08;2.75;;;;;;;15.35;75.26;93232.53;5072410;28;20020;-34
2022/09/12 06:16:57;;;;;;;4.35;3.60;;;;;;;15.15;77.03;93238.09;5072401;28;20420;-34
2022/09/12 06:19:23;;;;;;;3.58;3.28;;;;;;;15.22;74.99;93233.72;5072268;28;20024;-35
2022/09/12 06:21:50;;;;;;;4.32;3.50;;;;;;;15.01;76.56;93228.69;5071974;28;20027;-34
2022/09/12 06:24:19;;;;;;;5.68;3.95;;;;;;;14.90;78.41;93234.81;5072322;28;20082;-35
2022/09/12 06:26:46;;;;;;;5.63;4.40;;;;;;;14.78;78.95;93225.59;5071438;28;20035;-35
2022/09/12 06:29:12;;;;;;;4.95;3.92;;;;;;;14.89;79.42;93233.38;5086857;28;20035;-35
2022/09/12 06:31:39;;;;;;;4.88;4.22;;;;;;;15.02;78.65;93232.22;5091990;28;20426;-34
2022/09/12 06:34:07;;;;;;;4.65;4.15;;;;;;;15.19;77.20;93232.81;5073814;28;20028;-34
2022/09/12 06:36:41;;;;;;;8.67;4.93;;;;;;;15.26;76.29;93236.03;5073847;28;20032;-34
2022/09/12 06:39:09;;;;;;;4.68;3.67;;;;;;;15.38;75.99;93236.91;5091870;28;20032;-34
2022/09/12 06:41:35;;;;;;;5.43;4.10;;;;;;;15.40;74.93;93239.88;5092206;28;20028;-34
2022/09/12 06:44:01;;;;;;;4.70;3.75;;;;;;;15.48;75.49;93235.66;5091772;28;20046;-34
2022/09/12 06:46:26;;;;;;;4.53;3.90;;;;;;;15.40;77.30;93246.16;5092002;28;20032;-35
2022/09/12 06:48:54;;;;;;;4.68;3.00;;;;;;;15.45;74.33;93241.63;5091715;28;20504;-35
2022/09/12 06:51:19;;;;;;;5.97;3.70;;;;;;;15.51;74.82;93251.16;5091666;28;20031;-35
2022/09/12 06:53:46;;;;;;;4.28;3.20;;;;;;;15.70;75.53;93248.38;5091573;28;20449;-35
2022/09/12 06:56:13;;;;;;;3.53;3.22;;;;;;;15.77;74.08;93250.25;5091537;28;20510;-35
2022/09/12 06:58:39;;;;;;;4.63;3.42;;;;;;;16.33;71.80;93252.81;5091389;28;20048;-34
2022/09/12 07:01:14;;;;;;;4.05;3.20;;;;;;;16.50;71.25;93256.13;5091450;28;20115;-34
2022/09/12 07:03:39;;;;;;;3.22;2.92;;;;;;;16.96;70.78;93246.66;5061775;28;20055;-34
2022/09/12 07:06:07;;;;;;;2.53;2.30;;;;;;;17.62;67.30;93256.69;5071222;28;20491;-34
2022/09/12 07:08:33;;;;;;;3.17;2.30;;;;;;;18.45;64.29;93248.00;5071059;28;20032;-35
2022/09/12 07:11:06;;;;;;;3.13;2.35;;;;;;;18.59;61.92;93246.78;5071329;28;20044;-35
2022/09/12 07:13:32;;;;;;;2.75;2.30;;;;;;;19.30;61.02;93254.53;5070989;28;20020;-35
2022/09/12 07:16:01;;;;;;;2.05;1.85;;;;;;;19.79;58.58;93249.72;5071255;28;20035;-35
2022/09/12 07:18:28;;;;;;;2.50;2.30;;;;;;;20.95;54.88;93255.41;5071013;28;20431;-35
2022/09/12 07:20:53;;;;;;;1.63;1.50;;;;;;;21.94;50.51;93254.16;5071008;28;20518;-35
2022/09/12 07:23:19;;;;;;;1.63;1.52;;;;;;;22.83;50.49;93251.38;5070878;28;20120;-35
2022/09/12 07:25:52;;;;;;;2.03;1.40;;;;;;;23.60;47.30;93251.97;5070411;28;20012;-35
2022/09/12 07:28:18;;;;;;;1.40;1.30;;;;;;;24.48;45.51;93249.28;5077929;28;20020;-35
2022/09/12 07:30:43;;;;;;;0.85;0.80;;;;;;;24.64;42.92;93227.34;5090926;28;20074;-35
2022/09/12 07:33:08;;;;;;;1.30;1.20;;;;;;;24.77;43.85;93246.97;5090902;28;20024;-35
2022/09/12 07:35:34;;;;;;;1.08;0.90;;;;;;;25.07;42.58;93246.63;5091287;28;20028;-35
2022/09/12 07:38:00;;;;;;;1.35;1.25;;;;;;;24.98;41.43;93247.69;5091117;28;20024;-35
2022/09/12 07:40:25;;;;;;;0.93;0.93;;;;;;;25.13;42.45;93244.03;5091011;28;20024;-35
2022/09/12 07:42:50;;;;;;;1.30;1.20;;;;;;;25.83;41.12;93252.25;5091097;28;20144;-35
2022/09/12 07:45:16;;;;;;;1.05;1.00;;;;;;;26.23;40.23;93245.13;5090821;28;20445;-35
2022/09/12 07:47:42;;;;;;;1.25;1.15;;;;;;;26.55;39.48;93248.25;5090419;28;20031;-35
2022/09/12 07:50:08;;;;;;;1.23;1.13;;;;;;;27.23;38.54;93251.75;5090754;28;20088;-35
2022/09/12 07:52:33;;;;;;;0.98;0.88;;;;;;;27.49;37.80;93241.91;5090523;28;20020;-35
2022/09/12 07:54:58;;;;;;;0.95;0.95;;;;;;;26.95;37.85;93248.81;5090743;28;20023;-35
2022/09/12 07:57:24;;;;;;;1.00;0.95;;;;;;;26.66;39.40;93240.81;5090623;28;20555;-35
2022/09/12 07:59:50;;;;;;;1.50;1.40;;;;;;;25.85;40.45;93238.16;5079154;28;20041;-35
2022/09/12 08:02:15;;;;;;;1.65;1.55;;;;;;;25.59;40.85;93228.78;5070416;28;20033;-35
2022/09/12 08:04:41;;;;;;;4.40;1.50;;;;;;;25.35;42.90;93234.25;5070550;28;20032;-35
2022/09/12 08:07:08;;;;;;;3.47;1.65;;;;;;;26.10;40.90;93223.47;5070255;28;20503;-35
2022/09/12 08:09:34;;;;;;;1.50;1.40;;;;;;;26.31;39.85;93224.84;5070532;28;20040;-35
2022/09/12 08:11:59;;;;;;;1.60;1.50;;;;;;;25.71;41.06;93234.13;5070316;28;20480;-35
2022/09/12 08:14:25;;;;;;;1.48;1.38;;;;;;;25.42;41.54;93216.19;5070506;28;20032;-35
2022/09/12 08:16:50;;;;;;;1.83;1.08;;;;;;;25.60;40.39;93223.84;5052317;28;20068;-35
2022/09/12 08:19:16;;;;;;;1.13;1.10;;;;;;;25.42;41.59;93227.50;5070453;28;20032;-35
2022/09/12 08:21:41;;;;;;;1.70;1.40;;;;;;;25.30;42.42;93220.63;5070461;28;20031;-35
2022/09/12 08:24:07;;;;;;;1.40;1.30;;;;;;;25.42;41.79;93221.84;5070155;28;20423;-35
2022/09/12 08:26:33;;;;;;;1.55;1.33;;;;;;;25.69;41.32;93219.91;5069793;28;20037;-35
2022/09/12 08:28:59;;;;;;;1.40;1.30;;;;;;;26.40;39.74;93220.88;5083241;28;20479;-36
2022/09/12 08:31:26;;;;;;;2.08;1.40;;;;;;;26.42;39.85;93226.63;5090189;28;20035;-35
2022/09/12 08:33:54;;;;;;;1.10;1.10;;;;;;;27.66;37.79;93214.72;5090210;28;20115;-36
2022/09/12 08:36:22;;;;;;;1.17;1.17;;;;;;;27.98;36.78;93214.88;5090550;28;20464;-36
2022/09/12 08:38:54;;;;;;;1.50;1.40;;;;;;;27.96;36.80;93221.19;5090163;28;20043;-36
2022/09/12 08:41:30;;;;;;;1.60;1.50;;;;;;;27.89;36.42;93219.59;5090130;28;20024;-36
2022/09/12 08:44:43;;;;;;;1.50;1.40;;;;;;;27.76;36.42;93212.16;5090386;28;20024;-36
2022/09/12 08:47:28;;;;;;;1.58;1.48;;;;;;;28.68;36.21;93213.06;4997142;28;20050;-36
2022/09/12 08:49:59;;;;;;;1.98;1.77;;;;;;;28.41;34.52;93223.75;5090298;28;20027;-36
2022/09/12 08:52:27;;;;;;;2.17;1.67;;;;;;;26.85;38.94;93232.25;5090257;28;20028;-35
2022/09/12 08:54:55;;;;;;;1.50;1.40;;;;;;;26.53;39.12;93222.00;5089138;28;20054;-35
2022/09/12 08:57:21;;;;;;;1.92;1.75;;;;;;;27.04;37.78;93214.41;5070083;28;20116;-35
2022/09/12 08:59:47;;;;;;;2.47;1.58;;;;;;;27.12;37.04;93211.06;5073119;28;20536;-35
2022/09/12 09:02:43;;;;;;;1.60;1.50;;;;;;;26.10;38.32;93217.81;5055753;28;20055;-35
2022/09/12 09:05:19;;;;;;;2.10;1.80;;;;;;;25.38;39.90;93221.63;5073819;28;20028;-35
2022/09/12 09:07:56;;;;;;;1.75;1.65;;;;;;;24.49;41.92;93223.25;5073689;28;20454;-35
2022/09/12 09:10:43;;;;;;;1.67;1.58;;;;;;;23.78;43.71;93216.13;5073432;28;20146;-35
2022/09/12 09:16:14;;;;;;;1.50;1.37;;;;;;;24.62;40.52;93218.78;5058255;28;20039;-35
2022/09/12 09:18:42;;;;;;;1.58;1.48;;;;;;;24.85;41.12;93212.63;5055376;28;21047;-35
2022/09/12 09:21:12;;;;;;;4.13;1.27;;;;;;;24.74;40.70;93214.34;5055644;28;20410;-35
2022/09/12 09:23:49;;;;;;;1.60;1.23;;;;;;;24.94;40.56;93208.75;5073141;28;20081;-35
2022/09/12 09:26:18;;;;;;;1.42;1.30;;;;;;;26.14;40.53;93205.91;5072889;28;20025;-35
2022/09/12 09:28:53;;;;;;;1.05;0.95;;;;;;;27.39;35.99;93207.63;5083981;28;20035;-36
2022/09/12 09:31:23;;;;;;;6.20;1.10;;;;;;;27.57;35.22;93191.09;5075464;28;20100;-36
2022/09/12 09:33:50;;;;;;;1.30;1.20;;;;;;;27.10;37.28;93194.00;5075539;28;20024;-35
2022/09/12 09:36:24;;;;;;;1.52;1.42;;;;;;;26.51;37.23;93202.81;5093497;28;20439;-35
2022/09/12 09:39:34;;;;;;;1.08;0.82;;;;;;;26.06;38.98;93200.66;5075495;28;20415;-36
2022/09/12 09:42:15;;;;;;;0.82;0.80;;;;;;;25.25;38.83;93208.44;5093102;28;20027;-35
2022/09/12 09:44:42;;;;;;;1.83;1.73;;;;;;;24.66;39.65;93208.38;5075054;28;20016;-35
2022/09/12 09:47:10;;;;;;;2.08;1.88;;;;;;;24.52;41.24;93201.44;5093317;28;20449;-35
2022/09/12 09:49:36;;;;;;;2.83;1.70;;;;;;;24.32;40.64;93203.50;5093463;28;20022;-35
2022/09/12 09:52:05;;;;;;;1.77;1.67;;;;;;;23.85;40.81;93212.16;5092855;28;20024;-35
2022/09/12 09:54:42;;;;;;;2.40;2.20;;;;;;;23.19;42.95;93210.78;5055119;28;20454;-35
2022/09/12 09:57:33;;;;;;;1.90;1.80;;;;;;;22.94;43.67;93211.06;5072897;28;20106;-35
2022/09/12 09:59:58;;;;;;;2.20;2.00;;;;;;;22.60;43.77;93204.63;5072331;28;20036;-35
2022/09/12 10:02:25;;;;;;;4.65;2.10;;;;;;;22.30;45.33;93216.53;5054530;28;20020;-35
2022/09/12 10:04:57;;;;;;;2.70;2.50;;;;;;;22.56;45.56;93201.59;5054807;28;20027;-35
2022/09/12 10:07:24;;;;;;;1.75;1.65;;;;;;;24.09;42.01;93196.25;5072608;28;20020;-35
2022/09/12 10:10:14;;;;;;;2.08;1.75;;;;;;;25.71;38.90;93188.88;5037701;28;20027;-35
2022/09/12 10:12:40;;;;;;;1.70;1.60;;;;;;;27.03;35.30;93201.59;5072652;28;20055;-35
2022/09/12 10:15:35;;;;;;;1.92;1.83;;;;;;;26.90;37.19;93199.81;5072462;28;20090;-35
2022/09/12 10:18:01;;;;;;;1.55;1.45;;;;;;;26.50;37.98;93198.56;5046104;28;20032;-35
2022/09/12 10:20:43;;;;;;;1.23;1.13;;;;;;;25.93;38.36;93198.81;5072135;28;20024;-35
2022/09/12 10:23:17;;;;;;;1.40;1.30;;;;;;;25.68;38.13;93209.97;5054234;28;20032;-35
2022/09/12 10:25:47;;;;;;;2.38;1.83;;;;;;;25.08;39.48;93206.44;5071617;28;20119;-35
2022/09/12 10:28:24;;;;;;;1.73;1.45;;;;;;;24.59;40.32;93203.88;5078639;28;20028;-35
2022/09/12 10:30:51;;;;;;;2.20;2.00;;;;;;;24.00;41.76;93198.00;5074708;28;20440;-35
2022/09/12 10:33:17;;;;;;;1.80;1.70;;;;;;;23.45;42.30;93205.56;5092358;28;20027;-35
2022/09/12 10:35:45;;;;;;;1.92;1.75;;;;;;;23.21;43.29;93196.78;5092034;28;20442;-35
2022/09/12 10:38:23;;;;;;;1.83;1.70;;;;;;;22.99;44.84;93198.63;5073850;28;20028;-35
2022/09/12 10:41:00;;;;;;;1.77;1.67;;;;;;;22.73;45.12;93203.06;5092100;28;20035;-35
2022/09/12 10:43:38;;;;;;;1.50;1.40;;;;;;;23.09;44.60;93201.13;5092007;28;20099;-35
2022/09/12 10:46:16;;;;;;;;;;;;;;;24.59;42.67;93191.84;5092575;28;20024;-35
2022/09/12 10:48:43;;;;;;;1.70;1.60;;;;;;;24.25;40.88;93190.53;5091663;28;19916;-35
2022/09/12 10:51:26;;;;;;;2.03;1.90;;;;;;;23.74;40.96;93187.72;5092361;28;20404;-35
2022/09/12 10:54:01;;;;;;;1.98;1.75;;;;;;;23.61;42.88;93191.41;5076638;28;20043;-35
2022/09/12 10:57:20;;;;;;;2.08;1.55;;;;;;;22.93;43.46;93197.63;5071278;28;20028;-35
2022/09/12 10:59:49;;;;;;;1.92;1.73;;;;;;;22.69;43.61;93204.97;4989451;28;20061;-35
2022/09/12 11:02:28;;;;;;;1.20;1.10;;;;;;;22.48;44.12;93192.78;5055928;28;20496;-35
2022/09/12 11:05:25;;;;;;;0.73;0.73;;;;;;;22.20;45.36;93207.63;5071126;28;20107;-35
2022/09/12 11:08:27;;;;;;;0.80;0.80;;;;;;;21.90;45.85;93204.06;5053315;28;20021;-34
2022/09/12 11:11:19;;;;;;;1.40;1.30;;;;;;;21.74;46.34;93195.56;5071325;28;20480;-35
2022/09/12 11:14:12;;;;;;;0.98;0.98;;;;;;;21.51;46.81;93214.75;5053173;28;20067;-35
2022/09/12 11:16:59;;;;;;;1.00;0.90;;;;;;;21.46;48.05;93213.13;5053484;28;20409;-35
2022/09/12 11:19:46;;;;;;;2.42;2.22;;;;;;;21.13;47.45;93205.13;5071142;28;20099;-35
2022/09/12 11:22:23;;;;;;;2.28;2.08;;;;;;;20.58;48.17;93198.72;5070403;28;20028;-34
2022/09/12 11:25:26;;;;;;;3.13;2.83;;;;;;;20.27;49.53;93192.84;5070249;28;20028;-35
2022/09/12 11:28:05;;;;;;;4.03;2.72;;;;;;;20.03;49.85;93177.50;5074224;28;20024;-35
2022/09/12 11:30:39;;;;;;;3.22;2.92;;;;;;;20.16;50.10;93205.53;5091031;28;20099;-35
2022/09/12 11:33:22;;;;;;;2.97;2.78;;;;;;;20.12;50.03;93199.00;5072841;28;20031;-35
2022/09/12 11:35:50;;;;;;;2.63;2.42;;;;;;;20.06;49.07;93193.78;5091321;28;20032;-35
2022/09/12 11:38:40;;;;;;;2.70;2.50;;;;;;;19.95;50.06;93191.03;5072730;28;20028;-35
2022/09/12 11:41:11;;;;;;;3.30;3.00;;;;;;;20.01;51.15;93202.59;5072774;28;20055;-35
2022/09/12 11:44:31;;;;;;;7.00;5.65;;;;;;;20.00;50.64;93198.31;5072557;28;20131;-35
2022/09/12 11:46:58;;;;;;;3.10;2.80;;;;;;;19.96;50.33;93195.31;4972838;28;20077;-35
2022/09/12 11:49:35;;;;;;;2.60;2.40;;;;;;;19.84;50.56;93197.44;5065514;28;20032;-35
2022/09/12 11:52:16;;;;;;;3.33;3.03;;;;;;;19.60;51.03;93197.53;5072623;28;20423;-35
2022/09/12 11:54:49;;;;;;;4.20;3.80;;;;;;;19.50;50.55;93196.97;5070477;28;20511;-35
2022/09/12 11:57:24;;;;;;;6.47;4.00;;;;;;;19.28;51.58;93195.66;5069448;28;20028;-35